createdAt,value
2023-03-02T00:00:28.152Z,102379.38
2023-03-02T00:02:54.854Z,102378.53
2023-03-02T00:05:21.503Z,102373.28
2023-03-02T00:07:48.197Z,102384.81
2023-03-02T00:10:16.492Z,102382.19
2023-03-02T00:12:43.065Z,102383.16
2023-03-02T00:15:10.457Z,102380.53
2023-03-02T00:17:37.066Z,102385.91
2023-03-02T00:20:04.573Z,102383.28
2023-03-02T00:22:31.210Z,102391.25
2023-03-02T00:24:57.809Z,102380.66
2023-03-02T00:27:25.762Z,102384.25
2023-03-02T00:29:52.430Z,102380.75
2023-03-02T00:32:19.068Z,102381.72
2023-03-02T00:34:45.743Z,102389.72
2023-03-02T00:37:12.393Z,102381.78
2023-03-02T00:39:39.097Z,102372.13
2023-03-02T00:42:05.680Z,102383.69
2023-03-02T00:44:33.900Z,102383.75
2023-03-02T00:47:00.656Z,102378.47
2023-03-02T00:49:27.340Z,102389.13
2023-03-02T00:51:54.389Z,102390.03
2023-03-02T00:54:21.010Z,102390.09
2023-03-02T00:56:47.612Z,102391.94
2023-03-02T00:59:14.410Z,102392.84
2023-03-02T01:01:42.411Z,102381.41
2023-03-02T01:04:09.036Z,102378.81
2023-03-02T01:06:35.595Z,102379.78
2023-03-02T01:09:02.229Z,102374.50
2023-03-02T01:11:28.805Z,102376.34
2023-03-02T01:13:55.523Z,102375.41
2023-03-02T01:16:22.215Z,102373.72
2023-03-02T01:18:50.154Z,102366.66
2023-03-02T01:21:17.007Z,102365.78
2023-03-02T01:23:43.810Z,102366.75
2023-03-02T01:26:10.425Z,102369.44
2023-03-02T01:28:37.060Z,102365.97
2023-03-02T01:31:03.997Z,102364.25
2023-03-02T01:33:30.938Z,102367.84
2023-03-02T01:35:59.173Z,102360.81
2023-03-02T01:38:25.993Z,102358.19
2023-03-02T01:44:36.349Z,102353.03
2023-03-02T01:47:04.055Z,102351.25
2023-03-02T01:49:38.089Z,102350.41
2023-03-02T01:52:06.197Z,102352.25
2023-03-02T01:54:32.890Z,102344.31
2023-03-02T01:57:01.984Z,102339.00
2023-03-02T01:59:32.034Z,102338.13
2023-03-02T02:02:01.993Z,102340.78
2023-03-02T02:04:30.725Z,102339.13
2023-03-02T02:07:01.481Z,102334.78
2023-03-02T02:09:33.419Z,102333.06
2023-03-02T02:12:00.146Z,102337.59
2023-03-02T02:14:27.468Z,102339.41
2023-03-02T02:16:54.181Z,102331.50
2023-03-02T02:19:46.009Z,102326.28
2023-03-02T02:22:16.446Z,102332.41
2023-03-02T02:24:49.601Z,102331.50
2023-03-02T02:27:17.576Z,102331.50
2023-03-02T02:29:47.536Z,102338.53
2023-03-02T02:32:17.946Z,102340.34
2023-03-02T02:34:49.260Z,102337.78
2023-03-02T02:37:22.315Z,102334.28
2023-03-02T02:39:50.137Z,102326.31
2023-03-02T02:42:21.712Z,102327.25
2023-03-02T02:44:48.699Z,102334.34
2023-03-02T02:47:18.576Z,102338.78
2023-03-02T02:49:46.396Z,102331.72
2023-03-02T02:52:17.069Z,102331.72
2023-03-02T02:54:46.577Z,102329.09
2023-03-02T02:57:15.008Z,102333.56
2023-03-02T02:59:46.241Z,102323.88
2023-03-02T03:02:17.801Z,102319.53
2023-03-02T03:04:44.550Z,102316.94
2023-03-02T03:07:17.386Z,102317.00
2023-03-02T03:09:45.169Z,102312.69
2023-03-02T03:12:17.416Z,102309.19
2023-03-02T03:14:46.298Z,102322.50
2023-03-02T03:17:13.084Z,102325.16
2023-03-02T03:19:41.681Z,102318.09
2023-03-02T03:22:09.454Z,102319.84
2023-03-02T03:24:36.064Z,102317.22
2023-03-02T03:27:02.792Z,102312.81
2023-03-02T03:29:30.343Z,102311.13
2023-03-02T03:31:59.599Z,102321.75
2023-03-02T03:34:27.778Z,102322.72
2023-03-02T03:36:54.685Z,102321.88
2023-03-02T03:39:21.368Z,102325.47
2023-03-02T03:41:47.981Z,102316.69
2023-03-02T03:44:14.642Z,102313.22
2023-03-02T03:46:41.237Z,102315.88
2023-03-02T03:49:09.186Z,102320.31
2023-03-02T03:51:36.068Z,102315.09
2023-03-02T03:54:04.154Z,102318.63
2023-03-02T03:56:33.643Z,102313.34
2023-03-02T03:59:01.672Z,102317.75
2023-03-02T04:01:28.624Z,102316.00
2023-03-02T04:03:55.283Z,102318.63
2023-03-02T04:06:23.172Z,102317.81
2023-03-02T04:08:49.761Z,102314.31
2023-03-02T04:11:16.423Z,102311.69
2023-03-02T04:13:43.050Z,102308.19
2023-03-02T04:16:09.716Z,102310.84
2023-03-02T04:18:36.373Z,102309.13
2023-03-02T04:21:03.154Z,102310.94
2023-03-02T04:23:31.199Z,102317.16
2023-03-02T04:25:57.808Z,102313.69
2023-03-02T04:28:24.392Z,102313.69
2023-03-02T04:30:51.115Z,102311.06
2023-03-02T04:33:17.846Z,102319.00
2023-03-02T04:35:44.663Z,102320.72
2023-03-02T04:38:11.302Z,102330.41
2023-03-02T04:40:39.354Z,102328.66
2023-03-02T04:43:06.240Z,102329.53
2023-03-02T04:45:33.152Z,102331.28
2023-03-02T04:47:59.767Z,102327.75
2023-03-02T04:50:26.628Z,102334.81
2023-03-02T04:52:53.301Z,102336.59
2023-03-02T04:55:22.714Z,102339.25
2023-03-02T04:57:50.905Z,102333.06
2023-03-02T05:00:19.149Z,102325.97
2023-03-02T05:02:45.908Z,102328.53
2023-03-02T05:05:17.015Z,102318.78
2023-03-02T05:07:43.661Z,102323.13
2023-03-02T05:10:11.778Z,102323.94
2023-03-02T05:12:38.488Z,102319.50
2023-03-02T05:15:07.553Z,102316.75
2023-03-02T05:17:34.107Z,102315.84
2023-03-02T05:20:00.716Z,102319.31
2023-03-02T05:22:27.371Z,102318.44
2023-03-02T05:24:54.007Z,102320.16
2023-03-02T05:27:20.719Z,102326.25
2023-03-02T05:29:47.429Z,102327.94
2023-03-02T05:32:15.631Z,102330.56
2023-03-02T05:34:42.237Z,102324.31
2023-03-02T05:37:08.865Z,102319.84
2023-03-02T05:39:35.464Z,102325.94
2023-03-02T05:42:02.078Z,102325.94
2023-03-02T05:44:28.739Z,102330.28
2023-03-02T05:46:55.460Z,102317.84
2023-03-02T05:49:23.761Z,102315.16
2023-03-02T05:51:50.458Z,102319.53
2023-03-02T05:54:17.054Z,102317.69
2023-03-02T05:56:43.659Z,102313.22
2023-03-02T05:59:10.291Z,102312.31
2023-03-02T06:01:36.976Z,102321.09
2023-03-02T06:04:03.812Z,102326.31
2023-03-02T06:06:34.007Z,102326.28
2023-03-02T06:09:00.774Z,102324.41
2023-03-02T06:11:27.442Z,102332.28
2023-03-02T06:13:54.081Z,102334.81
2023-03-02T06:16:20.986Z,102330.34
2023-03-02T06:18:47.652Z,102330.28
2023-03-02T06:21:14.663Z,102336.56
2023-03-02T06:23:42.686Z,102339.16
2023-03-02T06:26:10.464Z,102343.56
2023-03-02T06:28:51.384Z,102343.53
2023-03-02T06:31:19.134Z,102347.19
2023-03-02T06:33:45.776Z,102353.38
2023-03-02T06:36:12.561Z,102348.97
2023-03-02T06:38:39.939Z,102347.19
2023-03-02T06:41:08.134Z,102342.75
2023-03-02T06:43:34.812Z,102347.09
2023-03-02T06:46:01.483Z,102355.81
2023-03-02T06:48:28.198Z,102350.41
2023-03-02T06:50:54.822Z,102353.03
2023-03-02T06:53:21.465Z,102353.03
2023-03-02T06:55:48.250Z,102350.38
2023-03-02T06:58:16.522Z,102358.25
2023-03-02T07:00:43.168Z,102360.81
2023-03-02T07:03:09.778Z,102366.97
2023-03-02T07:05:36.544Z,102359.00
2023-03-02T07:08:04.114Z,102362.31
2023-03-02T07:10:30.852Z,102356.78
2023-03-02T07:12:57.730Z,102354.00
2023-03-02T07:15:25.786Z,102354.69
2023-03-02T07:17:52.654Z,102347.50
2023-03-02T07:20:19.727Z,102343.91
2023-03-02T07:22:46.366Z,102342.91
2023-03-02T07:25:13.635Z,102345.44
2023-03-02T07:27:40.462Z,102354.09
2023-03-02T07:30:08.800Z,102349.63
2023-03-02T07:32:37.048Z,102342.44
2023-03-02T07:35:04.039Z,102343.22
2023-03-02T07:37:30.825Z,102333.47
2023-03-02T07:39:59.258Z,102337.91
2023-03-02T07:42:27.225Z,102344.06
2023-03-02T07:44:53.925Z,102344.00
2023-03-02T07:47:20.801Z,102348.50
2023-03-02T07:49:48.808Z,102350.31
2023-03-02T07:52:15.484Z,102350.28
2023-03-02T07:54:42.241Z,102351.03
2023-03-02T07:57:08.837Z,102350.00
2023-03-02T07:59:35.680Z,102351.66
2023-03-02T08:02:02.439Z,102345.38
2023-03-02T08:04:29.045Z,102347.09
2023-03-02T08:06:57.087Z,102347.84
2023-03-02T08:09:23.700Z,102342.31
2023-03-02T08:11:50.407Z,102346.59
2023-03-02T08:14:17.011Z,102346.41
2023-03-02T08:16:43.632Z,102343.59
2023-03-02T08:19:10.276Z,102353.25
2023-03-02T08:21:36.930Z,102346.91
2023-03-02T08:24:05.497Z,102343.16
2023-03-02T08:26:32.514Z,102342.13
2023-03-02T08:28:59.386Z,102342.97
2023-03-02T08:31:26.278Z,102348.16
2023-03-02T08:33:53.218Z,102349.84
2023-03-02T08:36:20.429Z,102347.91
2023-03-02T08:38:48.404Z,102341.72
2023-03-02T08:41:18.030Z,102339.84
2023-03-02T08:43:45.077Z,102332.66
2023-03-02T08:46:16.421Z,102331.50
2023-03-02T08:48:43.423Z,102328.53
2023-03-02T08:51:13.802Z,102338.00
2023-03-02T08:53:41.947Z,102329.72
2023-03-02T08:56:19.249Z,102328.56
2023-03-02T08:58:45.883Z,102319.59
2023-03-02T09:01:17.537Z,102326.72
2023-03-02T09:03:44.328Z,102316.03
2023-03-02T09:06:11.080Z,102307.16
2023-03-02T09:08:37.762Z,102301.84
2023-03-02T09:11:04.653Z,102300.91
2023-03-02T09:13:32.714Z,102302.88
2023-03-02T09:15:59.370Z,102298.28
2023-03-02T09:18:26.101Z,102288.38
2023-03-02T09:20:53.060Z,102296.00
2023-03-02T09:23:20.249Z,102299.25
2023-03-02T09:25:46.873Z,102306.41
2023-03-02T09:28:13.549Z,102297.38
2023-03-02T09:30:42.363Z,102310.50
2023-03-02T09:33:09.023Z,102303.22
2023-03-02T09:35:38.399Z,102304.88
2023-03-02T09:38:05.169Z,102303.09
2023-03-02T09:40:33.419Z,102291.41
2023-03-02T09:43:12.441Z,102294.72
2023-03-02T09:46:10.480Z,102302.47
2023-03-02T09:48:43.465Z,102294.22
2023-03-02T09:51:25.345Z,102295.72
2023-03-02T09:54:03.263Z,102301.06
2023-03-02T09:56:31.085Z,102301.84
2023-03-02T09:59:03.077Z,102300.84
2023-03-02T10:01:38.095Z,102302.47
2023-03-02T10:04:21.236Z,102299.66
2023-03-02T10:06:54.708Z,102297.63
2023-03-02T10:09:21.226Z,102301.81
2023-03-02T10:11:57.923Z,102308.94
2023-03-02T10:14:30.514Z,102301.41
2023-03-02T10:17:16.726Z,102306.03
2023-03-02T10:19:47.604Z,102299.50
2023-03-02T10:22:21.149Z,102306.50
2023-03-02T10:24:57.185Z,102301.97
2023-03-02T10:27:27.724Z,102302.78
2023-03-02T10:30:01.266Z,102297.16
2023-03-02T10:32:32.929Z,102301.38
2023-03-02T10:35:10.528Z,102302.72
2023-03-02T10:37:37.275Z,102296.19
2023-03-02T10:40:04.528Z,102297.03
2023-03-02T10:42:36.318Z,102300.44
2023-03-02T10:45:13.203Z,102303.59
2023-03-02T10:47:41.304Z,102301.78
2023-03-02T10:50:21.535Z,102301.69
2023-03-02T10:52:59.598Z,102291.56
2023-03-02T10:55:27.477Z,102292.28
2023-03-02T10:58:01.135Z,102296.75
2023-03-02T11:00:29.413Z,102289.69
2023-03-02T11:02:59.356Z,102291.41
2023-03-02T11:05:34.069Z,102291.41
2023-03-02T11:08:03.082Z,102285.16
2023-03-02T11:10:32.346Z,102288.94
2023-03-02T11:13:01.068Z,102286.59
2023-03-02T11:15:35.690Z,102288.44
2023-03-02T11:18:08.096Z,102286.28
2023-03-02T11:20:38.915Z,102289.81
2023-03-02T11:23:15.702Z,102291.75
2023-03-02T11:25:48.320Z,102280.19
2023-03-02T11:28:26.443Z,102281.56
2023-03-02T11:30:55.953Z,102276.22
2023-03-02T11:33:30.511Z,102281.44
2023-03-02T11:36:03.771Z,102269.69
2023-03-02T11:38:32.814Z,102263.09
2023-03-02T11:41:02.176Z,102260.75
2023-03-02T11:43:29.183Z,102264.25
2023-03-02T11:45:59.272Z,102258.78
2023-03-02T11:48:31.414Z,102261.50
2023-03-02T11:51:00.377Z,102254.88
2023-03-02T11:53:33.270Z,102254.59
2023-03-02T11:56:00.038Z,102249.69
2023-03-02T11:58:29.563Z,102245.47
2023-03-02T12:00:57.196Z,102244.19
2023-03-02T12:03:38.518Z,102240.72
2023-03-02T12:06:07.500Z,102243.88
2023-03-02T12:08:38.361Z,102238.53
2023-03-02T12:11:07.701Z,102227.44
2023-03-02T12:13:36.424Z,102231.34
2023-03-02T12:16:04.014Z,102223.59
2023-03-02T12:18:43.235Z,102225.28
2023-03-02T12:21:12.453Z,102222.53
2023-03-02T12:23:54.106Z,102223.91
2023-03-02T12:26:27.847Z,102215.31
2023-03-02T12:29:01.304Z,102218.41
2023-03-02T12:31:43.640Z,102210.91
2023-03-02T12:34:33.716Z,102206.56
2023-03-02T12:37:06.364Z,102208.22
2023-03-02T12:39:51.871Z,102205.69
2023-03-02T12:42:47.400Z,102207.13
2023-03-02T12:45:25.566Z,102201.13
2023-03-02T12:48:01.351Z,102193.56
2023-03-02T12:50:33.693Z,102189.94
2023-03-02T12:53:02.258Z,102194.22
2023-03-02T12:55:29.766Z,102194.06
2023-03-02T12:57:59.135Z,102192.78
2023-03-02T13:00:27.944Z,102189.81
2023-03-02T13:02:57.145Z,102187.78
2023-03-02T13:05:26.032Z,102188.53
2023-03-02T13:07:59.942Z,102178.06
2023-03-02T13:10:30.129Z,102184.53
2023-03-02T13:12:57.584Z,102182.94
2023-03-02T13:15:24.893Z,102183.19
2023-03-02T13:17:56.158Z,102181.59
2023-03-02T13:20:25.416Z,102180.97
2023-03-02T13:22:52.333Z,102189.16
2023-03-02T13:25:25.374Z,102188.50
2023-03-02T13:27:53.394Z,102174.34
2023-03-02T13:30:26.209Z,102176.22
2023-03-02T13:32:57.317Z,102181.72
2023-03-02T13:35:27.142Z,102191.78
2023-03-02T13:38:00.831Z,102179.63
2023-03-02T13:40:38.344Z,102176.13
2023-03-02T13:43:18.986Z,102173.34
2023-03-02T13:45:52.526Z,102167.00
2023-03-02T13:48:19.153Z,102170.44
2023-03-02T13:50:54.063Z,102167.88
2023-03-02T13:53:21.098Z,102164.22
2023-03-02T13:55:49.259Z,102164.22
2023-03-02T13:58:17.971Z,102157.00
2023-03-02T14:00:45.502Z,102149.03
2023-03-02T14:03:22.179Z,102151.94
2023-03-02T14:05:48.781Z,102153.97
2023-03-02T14:08:15.442Z,102142.56
2023-03-02T14:10:42.116Z,102150.69
2023-03-02T14:13:14.922Z,102138.69
2023-03-02T14:15:46.293Z,102143.34
2023-03-02T14:18:26.762Z,102139.69
2023-03-02T14:20:53.576Z,102134.59
2023-03-02T14:23:20.257Z,102134.81
2023-03-02T14:25:47.038Z,102128.59
2023-03-02T14:28:22.514Z,102126.84
2023-03-02T14:30:52.440Z,102118.03
2023-03-02T14:33:21.339Z,102121.66
2023-03-02T14:35:49.021Z,102116.38
2023-03-02T14:38:15.866Z,102108.41
2023-03-02T14:40:42.707Z,102107.78
2023-03-02T14:43:10.159Z,102103.84
2023-03-02T14:45:38.148Z,102097.69
2023-03-02T14:48:05.073Z,102089.66
2023-03-02T14:50:37.723Z,102098.53
2023-03-02T14:53:09.999Z,102092.19
2023-03-02T14:55:36.661Z,102090.75
2023-03-02T14:58:07.120Z,102096.09
2023-03-02T15:00:33.865Z,102091.84
2023-03-02T15:03:01.969Z,102094.50
2023-03-02T15:05:28.701Z,102093.84
2023-03-02T15:07:56.699Z,102087.22
2023-03-02T15:10:24.959Z,102095.53
2023-03-02T15:12:51.654Z,102086.06
2023-03-02T15:15:18.473Z,102088.88
2023-03-02T15:17:45.182Z,102083.69
2023-03-02T15:20:15.913Z,102086.63
2023-03-02T15:22:42.878Z,102087.69
2023-03-02T15:25:10.408Z,102088.88
2023-03-02T15:27:37.051Z,102092.69
2023-03-02T15:30:04.548Z,102092.16
2023-03-02T15:32:31.201Z,102086.94
2023-03-02T15:34:57.897Z,102079.28
2023-03-02T15:37:25.969Z,102084.50
2023-03-02T15:39:56.277Z,102082.66
2023-03-02T15:42:23.532Z,102078.19
2023-03-02T15:44:50.212Z,102083.53
2023-03-02T15:47:17.475Z,102080.97
2023-03-02T15:49:44.226Z,102085.50
2023-03-02T15:52:12.026Z,102075.75
2023-03-02T15:54:40.319Z,102074.81
2023-03-02T15:57:07.362Z,102087.22
2023-03-02T15:59:33.951Z,102077.53
2023-03-02T16:02:00.777Z,102082.16
2023-03-02T16:04:28.483Z,102072.50
2023-03-02T16:06:55.215Z,102076.09
2023-03-02T16:09:22.071Z,102069.88
2023-03-02T16:11:50.343Z,102074.44
2023-03-02T16:14:17.366Z,102068.13
2023-03-02T16:16:44.702Z,102062.94
2023-03-02T16:19:13.683Z,102056.75
2023-03-02T16:21:40.761Z,102059.34
2023-03-02T16:24:09.494Z,102054.00
2023-03-02T16:26:37.888Z,102056.75
2023-03-02T16:29:07.013Z,102047.09
2023-03-02T16:31:34.464Z,102048.94
2023-03-02T16:34:01.289Z,102056.94
2023-03-02T16:36:27.930Z,102056.28
2023-03-02T16:38:54.596Z,102061.75
2023-03-02T16:41:23.116Z,102059.28
2023-03-02T16:43:51.505Z,102062.16
2023-03-02T16:46:20.566Z,102057.09
2023-03-02T16:48:48.379Z,102064.31
2023-03-02T16:51:16.409Z,102068.97
2023-03-02T16:53:43.059Z,102067.34
2023-03-02T16:56:11.214Z,102070.16
2023-03-02T16:58:37.833Z,102074.88
2023-03-02T17:01:05.066Z,102083.06
2023-03-02T17:03:33.568Z,102084.03
2023-03-02T17:06:00.317Z,102086.78
2023-03-02T17:08:27.791Z,102090.41
2023-03-02T17:10:54.394Z,102087.94
2023-03-02T17:13:21.181Z,102087.13
2023-03-02T17:15:47.880Z,102092.47
2023-03-02T17:18:14.541Z,102092.50
2023-03-02T17:20:42.825Z,102096.13
2023-03-02T17:23:09.743Z,102093.47
2023-03-02T17:25:36.481Z,102091.78
2023-03-02T17:28:03.275Z,102096.31
2023-03-02T17:30:30.150Z,102094.72
2023-03-02T17:32:56.879Z,102084.97
2023-03-02T17:35:23.488Z,102093.03
2023-03-02T17:37:51.791Z,102089.44
2023-03-02T17:40:18.957Z,102088.56
2023-03-02T17:42:45.624Z,102100.03
2023-03-02T17:45:17.246Z,102096.38
2023-03-02T17:47:44.072Z,102094.53
2023-03-02T17:50:12.513Z,102099.84
2023-03-02T17:52:39.219Z,102104.19
2023-03-02T17:55:09.208Z,102105.06
2023-03-02T17:57:36.286Z,102100.59
2023-03-02T18:00:04.883Z,102104.03
2023-03-02T18:02:31.589Z,102099.72
2023-03-02T18:04:58.407Z,102107.84
2023-03-02T18:07:25.243Z,102113.19
2023-03-02T18:09:51.881Z,102107.03
2023-03-02T18:12:20.221Z,102121.19
2023-03-02T18:14:46.938Z,102118.56
2023-03-02T18:17:13.743Z,102114.25
2023-03-02T18:19:40.716Z,102120.50
2023-03-02T18:22:07.408Z,102116.81
2023-03-02T18:24:34.053Z,102119.34
2023-03-02T18:27:00.725Z,102115.84
2023-03-02T18:29:28.794Z,102114.97
2023-03-02T18:31:55.561Z,102112.22
2023-03-02T18:34:22.393Z,102113.97
2023-03-02T18:36:49.039Z,102112.19
2023-03-02T18:39:15.820Z,102117.66
2023-03-02T18:41:42.791Z,102119.56
2023-03-02T18:44:09.695Z,102117.09
2023-03-02T18:46:37.979Z,102122.53
2023-03-02T18:49:04.810Z,102131.47
2023-03-02T18:51:31.758Z,102127.94
2023-03-02T18:53:58.638Z,102118.19
2023-03-02T18:56:25.757Z,102123.53
2023-03-02T18:58:52.681Z,102123.66
2023-03-02T19:01:20.237Z,102118.38
2023-03-02T19:03:48.505Z,102112.03
2023-03-02T19:06:15.216Z,102118.06
2023-03-02T19:08:42.401Z,102111.81
2023-03-02T19:11:09.245Z,102111.75
2023-03-02T19:13:35.967Z,102115.34
2023-03-02T19:16:02.677Z,102123.34
2023-03-02T19:18:30.082Z,102117.00
2023-03-02T19:20:58.236Z,102117.94
2023-03-02T19:23:25.327Z,102110.88
2023-03-02T19:25:52.268Z,102110.16
2023-03-02T19:28:19.249Z,102117.19
2023-03-02T19:30:46.047Z,102120.00
2023-03-02T19:33:12.876Z,102120.00
2023-03-02T19:35:39.851Z,102114.72
2023-03-02T19:38:08.972Z,102121.91
2023-03-02T19:40:36.510Z,102121.03
2023-03-02T19:43:04.728Z,102126.38
2023-03-02T19:45:32.717Z,102127.16
2023-03-02T19:48:00.095Z,102123.66
2023-03-02T19:50:28.215Z,102113.06
2023-03-02T19:52:55.818Z,102123.66
2023-03-02T19:55:24.655Z,102117.47
2023-03-02T19:57:52.814Z,102117.50
2023-03-02T20:00:20.666Z,102122.03
2023-03-02T20:02:47.486Z,102119.47
2023-03-02T20:05:15.129Z,102118.59
2023-03-02T20:07:42.709Z,102121.28
2023-03-02T20:10:13.357Z,102122.16
2023-03-02T20:12:41.525Z,102128.34
2023-03-02T20:15:08.731Z,102137.09
2023-03-02T20:17:35.419Z,102137.03
2023-03-02T20:20:02.281Z,102138.78
2023-03-02T20:22:28.938Z,102135.25
2023-03-02T20:24:55.717Z,102133.50
2023-03-02T20:27:22.535Z,102144.16
2023-03-02T20:29:50.775Z,102150.41
2023-03-02T20:32:17.833Z,102146.97
2023-03-02T20:34:44.719Z,102153.16
2023-03-02T20:37:13.686Z,102149.72
2023-03-02T20:39:42.591Z,102148.94
2023-03-02T20:42:10.280Z,102147.19
2023-03-02T20:44:37.067Z,102146.56
2023-03-02T20:47:08.653Z,102145.78
2023-03-02T20:49:37.331Z,102142.34
2023-03-02T20:52:05.024Z,102142.34
2023-03-02T20:54:35.638Z,102151.25
2023-03-02T20:57:02.546Z,102154.03
2023-03-02T20:59:29.281Z,102154.97
2023-03-02T21:01:55.941Z,102155.88
2023-03-02T21:04:24.003Z,102150.69
2023-03-02T21:06:51.479Z,102152.47
2023-03-02T21:09:19.141Z,102147.13
2023-03-02T21:11:46.018Z,102150.72
2023-03-02T21:14:13.159Z,102151.69
2023-03-02T21:16:44.512Z,102154.38
2023-03-02T21:19:14.519Z,102143.72
2023-03-02T21:21:42.758Z,102148.94
2023-03-02T21:24:10.889Z,102144.53
2023-03-02T21:26:37.887Z,102144.66
2023-03-02T21:29:05.306Z,102145.66
2023-03-02T21:31:32.224Z,102150.97
2023-03-02T21:33:58.927Z,102150.09
2023-03-02T21:36:26.064Z,102151.94
2023-03-02T21:38:54.283Z,102157.28
2023-03-02T21:41:21.601Z,102153.69
2023-03-02T21:43:48.897Z,102147.41
2023-03-02T21:46:19.555Z,102149.94
2023-03-02T21:48:46.636Z,102150.06
2023-03-02T21:51:14.644Z,102149.28
2023-03-02T21:53:41.318Z,102148.38
2023-03-02T21:56:12.444Z,102144.78
2023-03-02T21:58:39.081Z,102137.66
2023-03-02T22:01:05.700Z,102137.84
2023-03-02T22:03:32.353Z,102142.41
2023-03-02T22:05:58.926Z,102129.91
2023-03-02T22:08:25.512Z,102132.50
2023-03-02T22:10:52.110Z,102118.28
2023-03-02T22:13:23.892Z,102120.84
2023-03-02T22:15:57.762Z,102126.94
2023-03-02T22:18:26.140Z,102128.66
2023-03-02T22:20:52.860Z,102126.09
2023-03-02T22:23:21.209Z,102137.66
2023-03-02T22:25:50.869Z,102134.25
2023-03-02T22:28:18.641Z,102123.13
2023-03-02T22:30:47.184Z,102124.03
2023-03-02T22:33:18.143Z,102126.59
2023-03-02T22:35:44.789Z,102123.81
2023-03-02T22:38:14.080Z,102129.84
2023-03-02T22:40:40.748Z,102113.75
2023-03-02T22:43:15.010Z,102102.13
2023-03-02T22:45:41.829Z,102103.91
2023-03-02T22:48:15.074Z,102100.38
2023-03-02T22:50:43.187Z,102120.84
2023-03-02T22:53:22.481Z,102116.53
2023-03-02T22:55:49.525Z,102103.22
2023-03-02T22:58:36.383Z,102098.69
2023-03-02T23:01:03.228Z,102096.84
2023-03-02T23:03:38.787Z,102097.59
2023-03-02T23:06:22.028Z,102086.94
2023-03-02T23:08:48.842Z,102082.47
2023-03-02T23:11:18.377Z,102080.59
2023-03-02T23:13:45.660Z,102083.25
2023-03-02T23:16:18.070Z,102086.00
2023-03-02T23:18:46.877Z,102083.53
2023-03-02T23:21:25.154Z,102085.31
2023-03-02T23:23:53.292Z,102075.53
2023-03-02T23:26:20.588Z,102072.81
2023-03-02T23:28:48.409Z,102065.66
2023-03-02T23:31:16.286Z,102068.34
2023-03-02T23:33:42.864Z,102080.03
2023-03-02T23:36:11.091Z,102073.09
2023-03-02T23:38:37.720Z,102075.75
2023-03-02T23:41:04.713Z,102080.16
2023-03-02T23:43:31.332Z,102085.53
2023-03-02T23:45:57.978Z,102080.22
2023-03-02T23:48:24.754Z,102089.06
2023-03-02T23:50:51.429Z,102085.66
2023-03-02T23:53:19.668Z,102083.06
2023-03-02T23:55:48.782Z,102091.03
2023-03-02T23:58:15.966Z,102098.28
